Sunday, December 16, 2018, 6:22 AM EST
Back to Local

KSLK, Adirondack Regional Airport

Location: Saranac Lake, NY, United States Lat: 44.4
Local Time: 6:22 AM EST (11:22 GMT) Lon: -74.2
Time Zone: US/Eastern Elev: 1663 ft

Show me the last for .
Show Decoded

2018-12-16 05:51 METAR KSLK 161051Z AUTO 00000KT 10SM CLR M06/M07 A3009 RMK AO2 SLP213 I1000
                 T10611067 $ =
2018-12-16 04:51 METAR KSLK 160951Z AUTO 00000KT 10SM CLR M06/M06 A3010 RMK AO2 SLP216 T10561061
                 $ =
2018-12-16 03:51 METAR KSLK 160851Z AUTO 00000KT 9SM CLR M07/M08 A3013 RMK AO2 SLP226 I3001
                 T10721078 58005 $ =
2018-12-16 02:51 METAR KSLK 160751Z AUTO 00000KT 10SM CLR M07/M07 A3014 RMK AO2 SLP228 I1001
                 T10671067 $ =
2018-12-16 01:51 METAR KSLK 160651Z AUTO 08003KT 10SM CLR M04/M05 A3014 RMK AO2 SLP226 I1000
                 T10391050 $ =
2018-12-16 00:51 METAR KSLK 160551Z AUTO 03006KT 10SM CLR M04/M04 A3015 RMK AO2 SLP229 I1000
                 I6000 T10391044 11017 21050 58013 $ =
2018-12-15 23:51 METAR KSLK 160451Z AUTO 00000KT 10SM CLR M04/M04 A3018 RMK AO2 SLP242 T10391039
                 400331039 $ =
2018-12-15 22:51 METAR KSLK 160351Z AUTO 06006KT 10SM CLR M03/M04 A3019 RMK AO2 SLP242 T10281044
                 $ =
2018-12-15 21:51 METAR KSLK 160251Z AUTO 07006KT 10SM CLR M02/M04 A3019 RMK AO2 SLP241 T10221039
                 50001 =
2018-12-15 20:51 METAR KSLK 160151Z AUTO 06008KT 10SM CLR M02/M03 A3019 RMK AO2 SLP244 T10171033
                 =
2018-12-15 19:51 METAR KSLK 160051Z AUTO 06006KT 10SM CLR M02/M03 A3020 RMK AO2 SLP245 T10171033
                 =
2018-12-15 18:51 METAR KSLK 152351Z AUTO 03004KT 10SM CLR M03/M03 A3018 RMK AO2 SLP241 T10331033
                 10022 21033 56001 =
2018-12-15 17:51 METAR KSLK 152251Z AUTO 00000KT 10SM CLR M02/M03 A3018 RMK AO2 SLP240 T10221033
                 =
2018-12-15 16:51 METAR KSLK 152151Z AUTO 00000KT 10SM CLR M02/M03 A3018 RMK AO2 SLP239 T10221033
                 =
2018-12-15 15:51 METAR KSLK 152051Z AUTO 00000KT 10SM CLR 00/M02 A3019 RMK AO2 SLP239 T00001022
                 51011 =
2018-12-15 14:51 METAR KSLK 151951Z AUTO 00000KT 10SM CLR 02/M03 A3017 RMK AO2 SLP233 T00171028 =
2018-12-15 14:30 METAR KSLK 151930Z AUTO 00000KT 10SM SCT023 02/M03 A3017 RMK AO2 T00171028 =
2018-12-15 13:51 METAR KSLK 151851Z AUTO 00000KT 10SM BKN022 02/M03 A3017 RMK AO2 SLP232
                 T00171028 =
2018-12-15 12:59 METAR KSLK 151759Z AUTO VRB04KT 10SM BKN023 02/M03 A3016 RMK AO2 T00171028 =
2018-12-15 12:51 METAR KSLK 151751Z AUTO 03003KT 10SM SCT022 02/M03 A3015 RMK AO2 SLP226
                 T00171033 10022 20006 56011 =
2018-12-15 12:22 METAR KSLK 151722Z AUTO 00000KT 10SM FEW020 02/M03 A3016 RMK AO2 T00221028 =
2018-12-15 11:51 METAR KSLK 151651Z AUTO 02005KT 10SM OVC022 02/M02 A3016 RMK AO2 SLP228
                 T00171022 =
2018-12-15 10:51 METAR KSLK 151551Z AUTO 24005KT 10SM BKN018 OVC022 01/M01 A3017 RMK AO2 SLP233
                 T00111011 =
2018-12-15 09:51 METAR KSLK 151451Z AUTO VRB03KT 10SM OVC015 01/M02 A3019 RMK AO2 SLP238
                 T00111017 51015 =
2018-12-15 09:33 METAR KSLK 151433Z AUTO 28005KT 10SM OVC015 01/M01 A3018 RMK AO2 T00061011 =
2018-12-15 08:51 METAR KSLK 151351Z AUTO VRB04KT 10SM OVC012 01/M01 A3018 RMK AO2 SLP237
                 T00061006 =
2018-12-15 07:51 METAR KSLK 151251Z AUTO 27007KT 220V300 10SM OVC014 02/01 A3016 RMK AO2 SLP228
                 T00170006 =
2018-12-15 07:15 METAR KSLK 151215Z AUTO VRB06KT 8SM OVC014 02/01 A3014 RMK AO2 T00220011 =
2018-12-15 06:51 METAR KSLK 151151Z AUTO 24005KT 9SM OVC015 02/01 A3014 RMK AO2 SLP221 70008
                 T00220011 10033 20022 51015 =

Support USWX by starting your Amazon purchase here.